Here is the Quick Look data you requested

The Data originates at the National Weather Service, and is made available here by the UAlbany Department of Atmospheric and Environmental Sciences

Surface Observations

KBWI 202354Z 30004KT 10SM FEW060 SCT160 BKN250 33/24 A2985 RMK AO2 SLP106
 T03330239 10378 20333 53005=
KBWI 210054Z 29004KT 10SM FEW060 FEW160 SCT250 32/24 A2985 RMK AO2 SLP106 CB
 DSNT W MOV E T03220239=
KBWI 210154Z 24003KT 10SM FEW060 FEW160 SCT250 29/24 A2986 RMK AO2 SLP111 OCNL
 LTGIC DSNT SW CB DSNT SW MOV SE T02940244=
KBWI 210254Z 28004KT 10SM FEW160 FEW250 30/24 A2985 RMK AO2 SLP106 T03000239
 50001=
KBWI 210354Z 23005KT 10SM BKN230 30/24 A2985 RMK AO2 SLP107 T03000239=
KBWI 210454Z 24006KT 10SM FEW180 BKN240 29/23 A2986 RMK AO2 SLP110 T02940233
 403780256=
KBWI 210554Z 28005KT 10SM FEW230 28/24 A2987 RMK AO2 SLP112 T02830239 10339
 20278 53005=
KBWI 210654Z 25003KT 10SM FEW230 27/24 A2986 RMK AO2 SLP110 T02720239=
KBWI 210754Z 22004KT 10SM SCT210 28/23 A2984 RMK AO2 SLP103 T02830233=
KBWI 210854Z 24005KT 10SM FEW180 SCT210 27/23 A2983 RMK AO2 SLP101 T02720233
 58010=
KBWI 210954Z 23003KT 9SM FEW210 FEW250 27/23 A2984 RMK AO2 SLP104 T02670233=
KBWI 211054Z 25005KT 10SM FEW200 FEW230 SCT250 27/23 A2986 RMK AO2 SLP110
 T02720233=
KBWI 211154Z 27008KT 9SM FEW180 SCT250 29/24 A2989 RMK AO2 SLP121 T02940239
 10294 20256 53020=
KBWI 211254Z 28008KT 9SM FEW180 SCT250 32/23 A2990 RMK AO2 SLP123 T03170233=
KBWI 211354Z 30011KT 10SM SCT180 33/24 A2989 RMK AO2 SLP121 T03330239=
KBWI 211454Z 30011KT 9SM FEW045 SCT180 34/23 A2989 RMK AO2 SLP118 T03440233
 58002=
KBWI 211554Z 29007KT 10SM SCT050 SCT180 SCT250 35/23 A2988 RMK AO2 SLP115
 T03500228=
KBWI 211654Z 30008KT 10SM SCT050 SCT250 36/23 A2987 RMK AO2 SLP111 T03610228=
KBWI 211754Z 25007G17KT 10SM BKN055 BKN180 36/23 A2987 RMK AO2 SLP112 T03610233
 10367 20300 56006=
KBWI 211854Z VRB05KT 10SM SCT055 SCT250 37/23 A2985 RMK AO2 SLP108 CB DSNT NW
 T03670228=
KBWI 211854Z COR VRB05KT 10SM SCT055 SCT250 37/23 A2985 RMK AO2 SLP108 CB DSNT
 NW MOV E T03670228=
KBWI 211954Z VRB03KT 10SM SCT055 SCT250 36/23 A2983 RMK AO2 SLP100 T03610228=
KBWI 212054Z 24009KT 10SM SCT060 SCT250 37/22 A2983 RMK AO2 SLP099 T03720222
 56014=
KBWI 212154Z 25008KT 10SM SCT060TCU SCT200 37/22 A2982 RMK AO2 SLP097 TCU SW-W
 T03720222=
KBWI 212254Z 27006KT 10SM FEW060 SCT200 SCT250 36/23 A2982 RMK AO2 SLP097 CB
 DSNT NW MOV E T03610228=
KBWI 212354Z 20004KT 10SM SCT060 BKN200 BKN250 34/23 A2983 RMK AO2 SLP100 CB
 DSNT W-NW MOV E AND CB DSNT N MOV E T03440233 10378 20344 53001=
KBWI 220017Z 23005KT 10SM TS SCT065CB SCT100 BKN200 BKN250 34/24 A2983 RMK AO2
 TSB17 OCNL LTGCG W TS W-NW MOV E T03390239=
KBWI 220200Z 32005KT 10SM FEW065 SCT100 SCT200 BKN250 28/19 A2988 RMK AO2 TSE00
 PRESRR OCNL LTGIC DSNT N-NE TS DSNT N- NE MOV E T02780189=
KBWI 220254Z 29006KT 10SM SCT100 BKN200 OVC250 27/20 A2989 RMK AO2 TSE00 SLP119
 OCNL LTGIC DSNT NW-N TS DSNT NW-N MOV E T02670200 51019=
KBWI 220354Z 25008KT 10SM FEW060 SCT100 BKN200 OVC250 27/21 A2988 RMK AO2
 SLP118 T02670206=
KBWI 220454Z 25006KT 10SM FEW085 BKN200 OVC250 27/21 A2988 RMK AO2 SLP116
 T02670206 403780256=
KBWI 220554Z 20004KT 10SM FEW085 BKN200 OVC250 27/21 A2988 RMK AO2 SLP116
 T02670211 10344 20261 56004=